Time;durP1;ratioP1;P1;durP2;ratioP2;P2;SDS_P1;SDS_P2;PMS_P1;PMS_P2;Temp;Humidity;BMP_temperature;BMP_pressure;BME280_temperature;BME280_humidity;BME280_pressure;Samples;Min_cycle;Max_cycle;Signal;HPM_P1;HPM_P2
2022/09/27 00:00:43;;;;;;;4.90;3.80;;;;;;;9.84;98.54;101065.06;5035435;28;20143;-77
2022/09/27 00:03:10;;;;;;;7.23;4.07;;;;;;;9.80;98.34;101063.66;5053090;28;20052;-76
2022/09/27 00:05:36;;;;;;;6.57;4.10;;;;;;;9.84;98.17;101070.38;5052893;28;20664;-77
2022/09/27 00:08:02;;;;;;;5.77;3.37;;;;;;;9.86;98.44;101071.06;5053171;28;20111;-75
2022/09/27 00:10:27;;;;;;;7.33;4.20;;;;;;;9.68;97.96;101041.75;5053005;28;20091;-75
2022/09/27 00:12:53;;;;;;;4.37;3.43;;;;;;;9.89;98.67;101076.91;5053283;28;20481;-77
2022/09/27 00:15:19;;;;;;;8.90;4.53;;;;;;;9.91;98.52;101071.44;5051803;28;20485;-76
2022/09/27 00:17:46;;;;;;;4.90;4.17;;;;;;;9.91;98.30;101066.13;5060327;28;20100;-75
2022/09/27 00:20:11;;;;;;;6.37;4.13;;;;;;;9.89;98.26;101057.44;5057273;28;20064;-77
2022/09/27 00:22:37;;;;;;;5.97;4.23;;;;;;;9.69;98.02;101030.13;5052863;28;20120;-77
2022/09/27 00:25:06;;;;;;;4.40;3.40;;;;;;;9.89;98.43;101065.44;5052888;28;20431;-75
2022/09/27 00:27:31;;;;;;;6.60;3.83;;;;;;;9.93;98.32;101064.13;5052710;28;20087;-77
2022/09/27 00:29:57;;;;;;;5.40;3.47;;;;;;;9.92;98.80;101067.78;5052784;28;20052;-76
2022/09/27 00:32:22;;;;;;;5.63;3.73;;;;;;;9.87;98.26;101070.06;5052649;28;20418;-77
2022/09/27 00:34:48;;;;;;;7.00;3.97;;;;;;;9.87;99.64;101064.75;5052463;28;20065;-75
2022/09/27 00:37:13;;;;;;;7.13;3.80;;;;;;;9.92;99.73;101062.47;5052609;28;20037;-76
2022/09/27 00:39:39;;;;;;;4.00;3.30;;;;;;;9.97;99.38;101070.00;5052669;28;20044;-75
2022/09/27 00:42:08;;;;;;;5.67;4.17;;;;;;;9.96;99.37;101066.50;5034442;28;20033;-77
2022/09/27 00:44:37;;;;;;;6.00;4.03;;;;;;;9.94;99.51;101065.81;5052439;28;20037;-75
2022/09/27 00:47:31;;;;;;;5.37;3.43;;;;;;;9.91;99.82;101071.44;5052610;28;20029;-75
2022/09/27 00:50:25;;;;;;;4.43;3.60;;;;;;;9.88;99.92;101066.41;5035180;28;20056;-75
2022/09/27 00:52:54;;;;;;;5.33;3.63;;;;;;;9.90;100.00;101064.44;5052345;28;20068;-75
2022/09/27 00:55:28;;;;;;;4.80;3.30;;;;;;;9.93;100.00;101069.47;5052269;28;20119;-74
2022/09/27 00:57:54;;;;;;;7.80;4.33;;;;;;;9.91;100.00;101061.63;5051857;28;20025;-75
2022/09/27 01:00:22;;;;;;;4.93;3.60;;;;;;;9.93;100.00;101061.47;5052217;28;20053;-76
2022/09/27 01:02:51;;;;;;;4.73;3.63;;;;;;;9.94;100.00;101068.47;5052321;28;20227;-75
2022/09/27 01:05:20;;;;;;;4.80;4.03;;;;;;;9.96;100.00;101069.16;5052381;28;20029;-75
2022/09/27 01:07:46;;;;;;;7.40;4.70;;;;;;;9.92;100.00;101057.16;5052095;28;20043;-75
2022/09/27 01:10:13;;;;;;;9.53;4.87;;;;;;;9.92;100.00;101057.16;5051952;28;20116;-76
2022/09/27 01:12:42;;;;;;;6.70;5.50;;;;;;;9.96;100.00;101053.19;5051991;28;20041;-74
2022/09/27 01:15:16;;;;;;;7.95;5.57;;;;;;;9.97;100.00;101054.88;5052104;28;20029;-76
2022/09/27 01:17:42;;;;;;;8.50;5.97;;;;;;;9.95;100.00;101051.53;5052159;28;20037;-76
2022/09/27 01:20:29;;;;;;;8.70;5.47;;;;;;;9.97;100.00;101054.88;5051831;28;20081;-76
2022/09/27 01:23:20;;;;;;;6.78;5.38;;;;;;;9.97;100.00;101060.19;5052025;28;20488;-77
2022/09/27 01:26:09;;;;;;;7.50;5.47;;;;;;;9.98;100.00;101048.56;5052062;28;20623;-76
2022/09/27 01:29:00;;;;;;;8.27;6.73;;;;;;;9.98;100.00;101064.53;5051859;28;20412;-77
2022/09/27 01:31:56;;;;;;;10.57;6.17;;;;;;;9.96;100.00;101058.50;5051730;28;20076;-76
2022/09/27 01:34:53;;;;;;;13.13;6.40;;;;;;;9.97;100.00;101052.19;5051887;28;20087;-76
2022/09/27 01:37:57;;;;;;;7.77;5.87;;;;;;;9.95;100.00;101056.84;5036047;28;20408;-77
2022/09/27 01:40:39;;;;;;;7.30;6.03;;;;;;;9.98;100.00;101061.03;4970957;28;20052;-77
2022/09/27 01:43:16;;;;;;;7.13;6.40;;;;;;;9.96;100.00;101058.50;5051817;28;20064;-76
2022/09/27 01:45:55;;;;;;;9.03;6.30;;;;;;;9.87;100.00;101048.78;5052232;28;20400;-76
2022/09/27 01:48:31;;;;;;;7.72;6.45;;;;;;;9.95;100.00;101067.47;5051871;28;20076;-76
2022/09/27 01:51:06;;;;;;;13.03;6.63;;;;;;;9.93;100.00;101061.47;5052028;28;20044;-74
2022/09/27 01:53:38;;;;;;;10.03;6.53;;;;;;;9.83;100.00;101053.56;5051819;28;20496;-75
2022/09/27 01:56:10;;;;;;;9.50;7.13;;;;;;;9.85;100.00;101066.72;5051371;28;20033;-76
2022/09/27 01:58:45;;;;;;;8.37;6.23;;;;;;;9.77;100.00;101059.47;5051439;28;20037;-76
2022/09/27 02:01:13;;;;;;;10.23;6.97;;;;;;;9.78;100.00;101060.31;5052117;28;20502;-77
2022/09/27 02:03:48;;;;;;;11.23;7.07;;;;;;;9.82;100.00;101061.69;5051868;28;20040;-76
2022/09/27 02:06:23;;;;;;;9.47;7.03;;;;;;;9.84;100.00;101068.56;5052201;28;20045;-76
2022/09/27 02:09:12;;;;;;;9.13;6.80;;;;;;;9.78;100.00;101049.66;5055143;28;20064;-74
2022/09/27 02:11:42;;;;;;;11.07;6.77;;;;;;;9.79;100.00;101067.31;5055764;28;20047;-75
2022/09/27 02:14:16;;;;;;;11.47;6.23;;;;;;;9.79;100.00;101061.97;5055430;28;20443;-75
2022/09/27 02:16:45;;;;;;;11.83;7.70;;;;;;;9.77;100.00;101067.44;5037494;28;20123;-76
2022/09/27 02:19:48;;;;;;;11.05;7.00;;;;;;;9.81;100.00;101060.00;5055006;28;20045;-75
2022/09/27 02:22:16;;;;;;;9.17;7.37;;;;;;;9.77;100.00;101058.63;5055220;28;20036;-77
2022/09/27 02:25:09;;;;;;;8.93;7.30;;;;;;;9.75;100.00;101068.59;5055087;28;20045;-78
2022/09/27 02:27:59;;;;;;;12.87;7.70;;;;;;;9.72;100.00;101063.56;5055079;28;20037;-75
2022/09/27 02:30:24;;;;;;;10.33;7.67;;;;;;;9.65;100.00;101057.19;5042603;28;20466;-76
2022/09/27 02:32:51;;;;;;;10.37;7.80;;;;;;;9.71;100.00;101069.88;5054798;28;20044;-75
2022/09/27 02:35:30;;;;;;;11.03;8.60;;;;;;;9.70;100.00;101058.41;5054593;28;20120;-77
2022/09/27 02:37:57;;;;;;;12.73;8.07;;;;;;;9.68;100.00;101064.88;5036809;28;20032;-75
2022/09/27 02:40:25;;;;;;;11.97;8.03;;;;;;;9.69;100.00;101066.53;5055022;28;20033;-77
2022/09/27 02:42:51;;;;;;;13.75;8.80;;;;;;;9.65;100.00;101063.34;5054849;28;20041;-76
2022/09/27 02:45:18;;;;;;;13.23;8.57;;;;;;;9.68;100.00;101064.88;5054567;28;20037;-76
2022/09/27 02:48:05;;;;;;;13.07;8.00;;;;;;;9.72;100.00;101066.22;5054554;28;20037;-77
2022/09/27 02:50:44;;;;;;;11.00;8.23;;;;;;;9.73;100.00;101068.75;5036676;28;20033;-76
2022/09/27 02:53:24;;;;;;;10.67;8.90;;;;;;;9.68;100.00;101064.88;5036760;28;20127;-76
2022/09/27 02:56:02;;;;;;;15.23;9.30;;;;;;;9.59;100.00;101064.78;5054423;28;20115;-76
2022/09/27 02:58:54;;;;;;;10.83;7.80;;;;;;;9.57;100.00;101065.91;5054254;28;20157;-76
2022/09/27 03:01:35;;;;;;;11.40;8.70;;;;;;;9.60;100.00;101063.78;5054709;28;20052;-77
2022/09/27 03:04:09;;;;;;;12.00;8.90;;;;;;;9.67;100.00;101071.16;5054707;28;20094;-78
2022/09/27 03:06:36;;;;;;;12.30;8.47;;;;;;;9.65;100.00;101059.84;5036439;28;20036;-76
2022/09/27 03:09:02;;;;;;;12.33;9.00;;;;;;;9.63;100.00;101049.34;5053969;28;20041;-76
2022/09/27 03:11:27;;;;;;;10.47;8.43;;;;;;;9.67;100.00;101045.41;5054242;28;20040;-76
2022/09/27 03:13:53;;;;;;;12.80;9.07;;;;;;;9.63;100.00;101047.53;5054096;28;20039;-76
2022/09/27 03:16:18;;;;;;;13.77;9.43;;;;;;;9.64;100.00;101056.34;5054395;28;20040;-77
2022/09/27 03:18:44;;;;;;;12.40;9.57;;;;;;;9.61;100.00;101060.16;5053920;28;20039;-75
2022/09/27 03:21:09;;;;;;;12.83;9.63;;;;;;;9.63;100.00;101068.81;5053885;28;20127;-76
2022/09/27 03:23:35;;;;;;;12.67;9.50;;;;;;;9.57;100.00;101061.44;5059595;28;20407;-75
2022/09/27 03:26:00;;;;;;;13.97;10.00;;;;;;;9.56;100.00;101056.28;5070670;28;20036;-75
2022/09/27 03:28:28;;;;;;;14.70;9.27;;;;;;;9.53;100.00;101052.06;5068367;28;20450;-78
2022/09/27 03:30:54;;;;;;;14.77;10.47;;;;;;;9.59;100.00;101063.94;5064736;28;20514;-75
2022/09/27 03:33:21;;;;;;;17.93;10.17;;;;;;;9.60;100.00;101066.44;5061323;28;20275;-78
2022/09/27 03:35:46;;;;;;;15.57;10.00;;;;;;;9.57;100.00;101074.72;5060260;28;20105;-77
2022/09/27 03:38:13;;;;;;;16.97;10.80;;;;;;;9.52;100.00;101061.03;5056668;28;20047;-76
2022/09/27 03:40:38;;;;;;;14.30;10.17;;;;;;;9.50;100.00;101063.00;5053635;28;20411;-74
2022/09/27 03:43:04;;;;;;;14.03;10.13;;;;;;;9.46;100.00;101060.78;5036321;28;20045;-76
2022/09/27 03:45:31;;;;;;;13.30;10.43;;;;;;;9.47;100.00;101065.94;5055348;28;20037;-77
2022/09/27 03:47:56;;;;;;;14.53;10.80;;;;;;;9.47;100.00;101067.78;5053380;28;20039;-76
2022/09/27 03:50:22;;;;;;;14.30;10.47;;;;;;;9.44;100.00;101068.91;5053172;28;20045;-78
2022/09/27 03:52:47;;;;;;;17.83;10.80;;;;;;;9.55;100.00;101070.56;5053287;28;20040;-78
2022/09/27 03:55:13;;;;;;;17.40;11.33;;;;;;;9.56;100.00;101074.88;5053582;28;20416;-76
2022/09/27 03:57:43;;;;;;;15.07;10.80;;;;;;;9.55;100.00;101076.69;5053875;28;20091;-77
2022/09/27 04:00:10;;;;;;;16.53;11.60;;;;;;;9.54;100.00;101080.34;5052758;28;20087;-77
2022/09/27 04:02:35;;;;;;;15.27;10.37;;;;;;;9.52;100.00;101078.78;5053142;28;20045;-79
2022/09/27 04:05:00;;;;;;;15.07;10.60;;;;;;;9.56;100.00;101065.09;5053302;28;20566;-76
2022/09/27 04:07:26;;;;;;;15.10;10.70;;;;;;;9.62;100.00;101080.44;5053099;28;20127;-78
2022/09/27 04:09:51;;;;;;;15.43;11.07;;;;;;;9.62;100.00;101087.56;5054050;28;20098;-76
2022/09/27 04:15:57;;;;;;;19.87;11.63;;;;;;;9.68;100.00;101083.47;5035447;28;20037;-77
2022/09/27 04:18:22;;;;;;;16.30;11.30;;;;;;;9.69;100.00;101088.66;5053652;28;20107;-77
2022/09/27 04:20:47;;;;;;;14.67;11.67;;;;;;;9.60;100.00;101069.13;5035610;28;20778;-78
2022/09/27 04:23:13;;;;;;;19.13;13.90;;;;;;;9.74;100.00;101077.56;5053001;28;20128;-78
2022/09/27 04:25:38;;;;;;;15.43;9.97;;;;;;;9.69;100.00;101071.84;5052974;28;20071;-78
2022/09/27 04:28:05;;;;;;;20.53;12.33;;;;;;;9.73;100.00;101081.19;5053005;28;20033;-82
2022/09/27 04:30:31;;;;;;;15.87;12.57;;;;;;;9.55;100.00;101044.78;5052608;28;20403;-77
2022/09/27 04:32:56;;;;;;;19.03;11.73;;;;;;;9.80;100.00;101079.63;5034728;28;20500;-74
2022/09/27 04:38:13;;;;;;;18.57;12.40;;;;;;;9.65;100.00;101054.53;5033822;28;20403;-75
2022/09/27 04:40:38;;;;;;;29.87;14.77;;;;;;;9.90;100.00;101083.06;5052393;28;20492;-76
2022/09/27 04:43:04;;;;;;;24.20;16.40;;;;;;;9.94;100.00;101076.47;5052599;28;20063;-74
2022/09/27 04:45:30;;;;;;;24.50;14.17;;;;;;;9.98;100.00;101087.63;5052326;28;20537;-74
2022/09/27 04:47:55;;;;;;;28.93;14.90;;;;;;;9.98;100.00;101082.31;5052390;28;20024;-74
2022/09/27 04:50:21;;;;;;;22.07;13.97;;;;;;;9.96;100.00;101079.78;5051009;28;20037;-79
2022/09/27 04:52:53;;;;;;;16.73;12.57;;;;;;;9.93;100.00;101077.44;5052500;28;20408;-78
2022/09/27 04:55:20;;;;;;;23.83;14.40;;;;;;;10.08;100.00;101099.88;5051997;28;20032;-76
2022/09/27 04:57:47;;;;;;;19.90;13.43;;;;;;;10.04;100.00;101087.84;5034352;28;20029;-77
2022/09/27 05:00:14;;;;;;;25.10;13.07;;;;;;;10.06;100.00;101090.38;5033934;28;20064;-76
2022/09/27 05:02:43;;;;;;;25.47;14.47;;;;;;;10.12;100.00;101085.28;5050342;28;20212;-75
2022/09/27 05:05:10;;;;;;;25.17;13.57;;;;;;;10.15;100.00;101076.16;5052099;28;20068;-78
2022/09/27 05:07:37;;;;;;;20.03;13.03;;;;;;;10.20;100.00;101079.22;5051626;28;20069;-74
2022/09/27 05:10:03;;;;;;;21.67;13.10;;;;;;;10.23;100.00;101082.44;5034107;28;20388;-75
2022/09/27 05:12:29;;;;;;;18.03;11.93;;;;;;;10.21;100.00;101089.72;5052780;28;20135;-75
2022/09/27 05:14:54;;;;;;;18.63;12.50;;;;;;;10.16;100.00;101086.66;5051934;28;20076;-75
2022/09/27 05:17:21;;;;;;;20.03;14.50;;;;;;;9.98;100.00;101055.69;5051897;28;20025;-73
2022/09/27 05:19:47;;;;;;;17.47;12.30;;;;;;;10.20;100.00;101093.38;5051927;28;20041;-75
2022/09/27 05:22:13;;;;;;;19.43;11.00;;;;;;;10.33;100.00;101097.47;5051747;28;20511;-73
2022/09/27 05:24:39;;;;;;;19.83;13.47;;;;;;;10.38;100.00;101095.19;5033738;28;20036;-75
2022/09/27 05:27:24;;;;;;;22.33;12.70;;;;;;;10.42;100.00;101099.25;5051810;28;20040;-74
2022/09/27 05:29:50;;;;;;;21.97;13.40;;;;;;;10.41;100.00;101100.22;5051079;28;20493;-74
2022/09/27 05:32:15;;;;;;;30.03;13.43;;;;;;;10.42;100.00;101086.75;5052020;28;20044;-76
2022/09/27 05:34:41;;;;;;;18.67;13.77;;;;;;;10.48;100.00;101098.63;5052010;28;20048;-75
2022/09/27 05:37:07;;;;;;;24.20;13.37;;;;;;;10.50;100.00;101093.97;5052066;28;20500;-73
2022/09/27 05:39:32;;;;;;;19.53;13.03;;;;;;;10.51;100.00;101103.63;5016761;28;20428;-75
2022/09/27 05:41:58;;;;;;;22.73;13.97;;;;;;;10.52;100.00;101102.66;5051651;28;20044;-73
2022/09/27 05:44:27;;;;;;;23.97;13.60;;;;;;;10.51;100.00;101100.97;5055550;28;20476;-76
2022/09/27 05:46:52;;;;;;;14.45;11.20;;;;;;;10.52;100.00;101102.66;5037586;28;20037;-77
2022/09/27 05:49:19;;;;;;;17.63;12.37;;;;;;;10.62;99.82;101097.22;5055234;28;20202;-74
2022/09/27 05:51:44;;;;;;;20.07;11.40;;;;;;;10.75;99.57;101103.00;5037230;28;20646;-74
2022/09/27 05:54:10;;;;;;;14.97;9.53;;;;;;;10.83;98.63;101101.22;5055962;28;20112;-76
2022/09/27 05:56:35;;;;;;;13.20;8.03;;;;;;;10.97;97.94;101106.97;5056133;28;20059;-75
2022/09/27 05:59:03;;;;;;;14.60;9.93;;;;;;;10.97;96.96;101106.97;5054891;28;20144;-76
2022/09/27 06:01:29;;;;;;;9.77;7.03;;;;;;;11.02;97.22;101113.50;5054268;28;20045;-76
2022/09/27 06:03:57;;;;;;;10.47;5.63;;;;;;;10.79;96.53;101083.03;5055489;28;20116;-78
2022/09/27 06:06:23;;;;;;;7.93;5.43;;;;;;;11.01;96.59;101111.00;5055836;28;20090;-75
2022/09/27 06:08:48;;;;;;;6.50;5.00;;;;;;;11.03;96.76;101109.03;5054605;28;20053;-75
2022/09/27 06:11:16;;;;;;;9.57;4.90;;;;;;;11.14;95.94;101116.75;5055250;28;20033;-75
2022/09/27 06:13:42;;;;;;;5.65;4.93;;;;;;;11.03;95.50;101096.53;5054947;28;20484;-74
2022/09/27 06:16:10;;;;;;;8.37;4.97;;;;;;;11.13;95.33;101110.56;5036596;28;20048;-75
2022/09/27 06:18:35;;;;;;;7.25;5.13;;;;;;;11.31;94.75;101115.00;5055317;28;20072;-75
2022/09/27 06:21:03;;;;;;;7.73;5.70;;;;;;;11.44;93.82;101116.22;5055426;28;20114;-74
2022/09/27 06:23:32;;;;;;;5.70;4.87;;;;;;;11.60;92.74;101120.00;5055248;28;20037;-76
2022/09/27 06:26:08;;;;;;;6.63;5.80;;;;;;;11.92;90.90;101124.63;5055236;28;20041;-76
2022/09/27 06:28:36;;;;;;;10.13;7.23;;;;;;;12.20;89.21;101122.53;5056579;28;20028;-76
2022/09/27 06:31:07;;;;;;;8.07;6.72;;;;;;;12.39;88.34;101127.53;5058377;28;20044;-73
2022/09/27 06:33:34;;;;;;;24.70;14.87;;;;;;;12.47;87.45;101118.72;5037713;28;20037;-75
2022/09/27 06:36:04;;;;;;;16.07;12.63;;;;;;;12.43;87.35;101123.53;5054897;28;20512;-74
2022/09/27 06:38:30;;;;;;;12.50;9.93;;;;;;;12.33;87.53;101125.53;5054746;28;20041;-74
2022/09/27 06:41:05;;;;;;;13.30;11.00;;;;;;;12.37;87.68;101132.22;5054499;28;20083;-77
2022/09/27 06:43:34;;;;;;;14.07;11.83;;;;;;;12.38;86.90;101125.88;5055083;28;20064;-76
2022/09/27 06:46:04;;;;;;;15.50;12.67;;;;;;;12.36;87.05;101125.22;5036535;28;20044;-77
2022/09/27 06:48:31;;;;;;;19.43;12.43;;;;;;;12.39;87.01;101119.53;5054599;28;20407;-76
2022/09/27 06:50:57;;;;;;;17.70;12.30;;;;;;;12.44;85.58;101122.56;5054523;28;20072;-76
2022/09/27 06:53:24;;;;;;;19.17;13.00;;;;;;;12.37;84.98;101118.88;5054027;28;20512;-75
2022/09/27 06:55:50;;;;;;;18.07;12.77;;;;;;;12.45;85.22;101129.56;5035678;28;20036;-76
2022/09/27 07:01:02;;;;;;;20.87;13.13;;;;;;;12.33;86.06;101128.22;5054780;28;20064;-75
2022/09/27 07:03:34;;;;;;;17.77;12.80;;;;;;;12.24;86.18;101139.88;5054367;28;20080;-74
2022/09/27 07:06:05;;;;;;;16.23;12.87;;;;;;;12.23;86.21;101139.06;5054150;28;20064;-74
2022/09/27 07:08:30;;;;;;;17.10;13.40;;;;;;;12.24;86.73;101126.53;5036060;28;20488;-75
2022/09/27 07:11:02;;;;;;;18.10;12.00;;;;;;;12.41;85.22;101125.53;5035918;28;20069;-73
2022/09/27 07:13:31;;;;;;;14.83;12.20;;;;;;;12.49;84.39;101138.09;5054282;28;20025;-74
2022/09/27 07:15:57;;;;;;;16.90;12.60;;;;;;;12.38;83.89;101137.41;5053697;28;20370;-75
2022/09/27 07:18:23;;;;;;;17.27;12.50;;;;;;;12.16;85.21;101134.53;5054244;28;20064;-75
2022/09/27 07:20:49;;;;;;;16.70;13.13;;;;;;;12.06;85.35;101148.00;5052733;28;20647;-76
2022/09/27 07:23:16;;;;;;;14.67;10.70;;;;;;;11.91;86.56;101129.13;5036158;28;20044;-76
2022/09/27 07:25:42;;;;;;;21.67;11.37;;;;;;;12.13;86.00;101150.88;5036251;28;20032;-73
2022/09/27 07:28:13;;;;;;;15.47;9.83;;;;;;;12.12;84.97;101142.00;5054865;28;20040;-75
2022/09/27 07:30:38;;;;;;;20.77;10.70;;;;;;;12.20;85.23;101151.91;5055605;28;20039;-75
2022/09/27 07:33:05;;;;;;;16.27;10.70;;;;;;;12.18;84.85;101136.03;5067729;28;20013;-73
2022/09/27 07:35:31;;;;;;;16.33;10.37;;;;;;;12.21;85.06;101145.56;5077971;28;20086;-76
2022/09/27 07:38:57;;;;;;;12.37;8.83;;;;;;;12.17;84.10;101154.91;5076946;28;20033;-76
2022/09/27 07:41:22;;;;;;;14.60;9.27;;;;;;;11.98;84.65;101150.66;4980100;28;20059;-74
2022/09/27 07:43:48;;;;;;;15.27;8.97;;;;;;;11.81;85.12;101141.75;5059004;28;20519;-77
2022/09/27 07:46:13;;;;;;;13.97;9.83;;;;;;;11.83;84.76;101150.44;5054734;28;20403;-74
2022/09/27 07:48:39;;;;;;;12.00;9.03;;;;;;;11.83;84.68;101146.94;5036205;28;20041;-76
2022/09/27 07:51:07;;;;;;;11.60;7.90;;;;;;;11.77;84.23;101132.38;5054815;28;20037;-75
2022/09/27 07:53:32;;;;;;;13.30;8.70;;;;;;;12.05;84.25;101157.84;5036443;28;20124;-73
2022/09/27 07:55:58;;;;;;;11.37;7.90;;;;;;;12.20;82.20;101160.75;5019272;28;20060;-77
2022/09/27 07:58:23;;;;;;;10.17;7.17;;;;;;;12.36;79.95;101157.25;5054958;28;20166;-75
2022/09/27 08:00:49;;;;;;;16.60;7.53;;;;;;;12.44;79.89;101149.28;5054444;28;20057;-74
2022/09/27 08:03:16;;;;;;;12.00;7.70;;;;;;;12.47;79.38;101156.97;5055067;28;20075;-75
2022/09/27 08:05:46;;;;;;;10.30;7.50;;;;;;;12.37;79.69;101161.59;5053034;28;20033;-75
2022/09/27 08:08:13;;;;;;;15.00;9.20;;;;;;;12.31;80.50;101152.41;5053280;28;20044;-75
2022/09/27 08:10:43;;;;;;;10.13;8.57;;;;;;;12.39;81.83;101154.25;5054676;28;20098;-74
2022/09/27 08:13:09;;;;;;;12.97;8.10;;;;;;;12.48;82.11;101157.78;5053118;28;20068;-77
2022/09/27 08:15:37;;;;;;;18.37;9.03;;;;;;;12.51;81.68;101154.78;5053663;28;20044;-76
2022/09/27 08:18:02;;;;;;;13.23;7.40;;;;;;;12.56;81.62;101166.66;5052943;28;20036;-77
2022/09/27 08:20:28;;;;;;;13.57;8.37;;;;;;;12.57;81.42;101159.47;5051963;28;20110;-74
2022/09/27 08:22:53;;;;;;;15.50;8.60;;;;;;;12.63;80.59;101167.66;5053056;28;20369;-75
2022/09/27 08:25:21;;;;;;;13.63;8.90;;;;;;;12.67;80.08;101152.94;5052914;28;20135;-74
2022/09/27 08:27:58;;;;;;;17.60;8.10;;;;;;;12.66;80.17;101147.78;5052548;28;20506;-75
2022/09/27 08:30:25;;;;;;;21.17;9.10;;;;;;;12.65;80.12;101157.63;5053265;28;20033;-77
2022/09/27 08:32:55;;;;;;;20.07;9.70;;;;;;;12.68;80.34;101159.13;5053021;28;20087;-77
2022/09/27 08:35:21;;;;;;;10.90;7.70;;;;;;;12.63;79.15;101164.97;5053279;28;20040;-76
2022/09/27 08:37:58;;;;;;;13.97;7.10;;;;;;;12.78;79.44;101167.84;5052712;28;20044;-76
2022/09/27 08:40:47;;;;;;;19.13;7.70;;;;;;;12.85;78.64;101162.66;5052814;28;20041;-75
2022/09/27 08:43:28;;;;;;;11.83;8.47;;;;;;;12.93;78.25;101176.00;5051331;28;20047;-75
2022/09/27 08:46:10;;;;;;;12.27;7.73;;;;;;;12.94;78.80;101175.84;5051224;28;20041;-76
2022/09/27 08:48:37;;;;;;;13.63;7.17;;;;;;;12.94;77.63;101175.00;5052353;28;20507;-75
2022/09/27 08:51:07;;;;;;;14.48;6.68;;;;;;;12.90;77.02;101166.47;5052364;28;20141;-75
2022/09/27 08:53:51;;;;;;;11.53;6.67;;;;;;;12.97;77.17;101172.81;5034391;28;20492;-74
2022/09/27 08:56:20;;;;;;;10.17;6.43;;;;;;;13.17;75.83;101159.97;5052460;28;20040;-77
2022/09/27 08:59:10;;;;;;;10.15;6.38;;;;;;;13.54;75.25;101153.19;5052057;28;20083;-76
2022/09/27 09:01:40;;;;;;;12.10;5.60;;;;;;;13.75;72.30;101152.63;5052467;28;20523;-77
2022/09/27 09:04:07;;;;;;;6.93;5.17;;;;;;;13.91;71.42;101157.91;5052341;28;20049;-77
2022/09/27 09:07:10;;;;;;;12.13;6.00;;;;;;;13.83;70.92;101164.13;5052401;28;20036;-77
2022/09/27 09:09:51;;;;;;;8.70;4.53;;;;;;;13.95;70.29;101162.75;5034321;28;20496;-76
2022/09/27 09:15:15;;;;;;;6.33;5.33;;;;;;;14.08;69.85;101153.28;5052093;28;20047;-74
2022/09/27 09:18:05;;;;;;;6.53;5.23;;;;;;;13.87;68.21;101160.06;5051308;28;20362;-74
2022/09/27 09:20:42;;;;;;;8.10;5.77;;;;;;;13.86;69.11;101161.09;5051031;28;20041;-74
2022/09/27 09:23:38;;;;;;;10.33;5.27;;;;;;;13.81;68.45;101158.09;5052574;28;20033;-75
2022/09/27 09:26:22;;;;;;;6.80;5.17;;;;;;;13.89;67.92;101152.72;5052215;28;20259;-73
2022/09/27 09:29:10;;;;;;;7.67;4.73;;;;;;;13.84;67.82;101151.56;5052507;28;20044;-76
2022/09/27 09:31:58;;;;;;;5.97;4.20;;;;;;;13.92;66.34;101149.69;5052743;28;20025;-74
2022/09/27 09:34:39;;;;;;;6.95;4.20;;;;;;;13.88;66.46;101153.75;5052993;28;20124;-75
2022/09/27 09:37:14;;;;;;;8.43;5.70;;;;;;;14.08;66.50;101147.94;5052179;28;20040;-74
2022/09/27 09:39:46;;;;;;;5.63;3.77;;;;;;;14.18;64.04;101132.50;5051895;28;20040;-74
2022/09/27 09:42:23;;;;;;;4.40;4.00;;;;;;;14.47;62.93;101148.75;5051886;28;20040;-76
2022/09/27 09:45:27;;;;;;;3.30;2.87;;;;;;;14.52;58.60;101151.72;5052657;28;20626;-76
2022/09/27 09:48:02;;;;;;;5.22;2.78;;;;;;;14.71;59.85;101158.41;5051983;28;20520;-76
2022/09/27 09:50:34;;;;;;;4.37;3.33;;;;;;;14.67;58.54;101175.03;5052917;28;20037;-76
2022/09/27 09:53:20;;;;;;;3.03;1.70;;;;;;;14.64;51.75;101160.16;5053231;28;20086;-75
2022/09/27 09:56:01;;;;;;;2.17;1.97;;;;;;;14.33;50.61;101162.03;5035138;28;20377;-74
2022/09/27 09:59:01;;;;;;;2.63;2.07;;;;;;;14.15;50.75;101171.16;5060240;28;20036;-75
2022/09/27 10:01:45;;;;;;;3.27;2.10;;;;;;;13.92;50.86;101163.09;5047476;28;20053;-74
2022/09/27 10:04:25;;;;;;;4.07;2.23;;;;;;;13.67;51.36;101166.88;5055812;28;20076;-75
2022/09/27 10:06:51;;;;;;;3.07;2.13;;;;;;;13.67;53.54;101164.19;5052769;28;20044;-74
2022/09/27 10:09:23;;;;;;;2.50;2.27;;;;;;;14.03;53.89;101161.84;5056979;28;20518;-75
2022/09/27 10:11:49;;;;;;;2.47;2.17;;;;;;;14.19;51.38;101163.63;5057656;28;20025;-75
2022/09/27 10:14:18;;;;;;;2.83;2.07;;;;;;;14.29;52.40;101158.88;5054427;28;20029;-75
2022/09/27 10:17:03;;;;;;;4.97;1.90;;;;;;;14.47;50.97;101153.25;5050888;28;20123;-75
2022/09/27 10:19:31;;;;;;;6.67;2.43;;;;;;;14.59;50.74;101151.00;5052222;28;20456;-77
2022/09/27 10:22:01;;;;;;;3.25;2.20;;;;;;;14.71;49.06;101133.44;5035226;28;20408;-75
2022/09/27 10:24:27;;;;;;;5.77;2.43;;;;;;;15.04;48.39;101150.94;5052507;28;20483;-76
2022/09/27 10:26:58;;;;;;;2.37;2.17;;;;;;;15.24;49.05;101151.22;5053430;28;20033;-76
2022/09/27 10:29:32;;;;;;;5.93;2.70;;;;;;;15.41;48.52;101135.81;5055077;28;20118;-74
2022/09/27 10:32:02;;;;;;;2.50;2.00;;;;;;;15.48;48.74;101147.44;5055701;28;20056;-78
2022/09/27 10:34:40;;;;;;;2.50;2.30;;;;;;;15.03;47.91;101157.28;5054936;28;20040;-78
2022/09/27 10:37:11;;;;;;;4.83;2.70;;;;;;;14.69;48.27;101156.94;5055101;28;20136;-77
2022/09/27 10:39:39;;;;;;;2.60;2.03;;;;;;;14.51;49.16;101151.88;5055228;28;20041;-78
2022/09/27 10:42:21;;;;;;;2.70;2.38;;;;;;;14.36;49.56;101138.38;5055877;28;20037;-77
2022/09/27 10:44:47;;;;;;;2.43;2.17;;;;;;;14.32;51.32;101152.31;5055047;28;20063;-75
2022/09/27 10:47:21;;;;;;;6.90;2.90;;;;;;;14.30;51.80;101163.22;5054885;28;20052;-75
2022/09/27 10:49:48;;;;;;;4.30;2.30;;;;;;;14.18;52.04;101145.88;5055028;28;20037;-76
2022/09/27 10:52:17;;;;;;;3.17;2.47;;;;;;;14.28;52.94;101149.16;5054804;28;20400;-74
2022/09/27 10:55:14;;;;;;;4.67;2.27;;;;;;;14.41;55.50;101156.59;5020377;28;20399;-78
2022/09/27 10:57:40;;;;;;;3.53;2.43;;;;;;;14.31;52.01;101159.53;5044130;28;20065;-74
2022/09/27 11:00:23;;;;;;;5.43;2.77;;;;;;;14.25;52.63;101154.88;5054499;28;20072;-75
2022/09/27 11:02:55;;;;;;;7.13;2.80;;;;;;;14.13;52.28;101162.47;5054789;28;20055;-75
2022/09/27 11:05:25;;;;;;;3.70;3.40;;;;;;;14.09;54.22;101161.16;5054665;28;20047;-76
2022/09/27 11:08:01;;;;;;;4.57;2.70;;;;;;;13.96;54.07;101160.91;5054496;28;20051;-75
2022/09/27 11:10:35;;;;;;;6.50;3.10;;;;;;;13.79;53.86;101160.13;5036755;28;20063;-74
2022/09/27 11:13:10;;;;;;;5.17;2.70;;;;;;;13.70;52.94;101165.69;5054421;28;20040;-75
2022/09/27 11:16:08;;;;;;;4.57;2.63;;;;;;;13.57;53.33;101151.00;5054716;28;20079;-76
2022/09/27 11:19:22;;;;;;;4.68;2.95;;;;;;;13.54;51.63;101167.41;5054638;28;20032;-75
2022/09/27 11:22:03;;;;;;;4.10;2.97;;;;;;;13.55;53.88;101165.56;5036564;28;20065;-75
2022/09/27 11:24:31;;;;;;;5.77;3.27;;;;;;;13.59;52.93;101172.25;5054360;28;20037;-77
2022/09/27 11:27:15;;;;;;;4.15;2.88;;;;;;;13.67;52.84;101174.91;5054519;28;20037;-75
2022/09/27 11:29:53;;;;;;;3.43;2.50;;;;;;;13.78;54.54;101169.16;5054377;28;20071;-77
2022/09/27 11:32:37;;;;;;;3.10;2.40;;;;;;;13.98;53.97;101163.41;5054335;28;20045;-75
2022/09/27 11:35:46;;;;;;;5.53;2.50;;;;;;;14.04;54.97;101157.34;5053894;28;20276;-74
2022/09/27 11:38:30;;;;;;;3.10;2.53;;;;;;;14.09;53.51;101160.31;5054279;28;20032;-74
2022/09/27 11:41:14;;;;;;;2.80;1.97;;;;;;;14.14;52.74;101158.78;5035586;28;20041;-78
2022/09/27 11:43:54;;;;;;;2.07;1.87;;;;;;;14.15;54.31;101165.78;5036240;28;20615;-74
2022/09/27 11:46:32;;;;;;;3.27;2.57;;;;;;;14.08;55.10;101159.47;5052655;28;20028;-75
2022/09/27 11:49:35;;;;;;;12.63;2.93;;;;;;;14.06;53.54;101145.44;5053777;28;20076;-77
2022/09/27 11:52:33;;;;;;;4.40;2.57;;;;;;;14.09;52.12;101154.97;5053289;28;20025;-76
2022/09/27 11:55:15;;;;;;;3.20;2.20;;;;;;;13.82;51.65;101137.50;5053595;28;20431;-77